Time;durP1;ratioP1;P1;durP2;ratioP2;P2;SDS_P1;SDS_P2;PMS_P1;PMS_P2;Temp;Humidity;BMP_temperature;BMP_pressure;BME280_temperature;BME280_humidity;BME280_pressure;Samples;Min_cycle;Max_cycle;Signal;HPM_P1;HPM_P2
2023/06/09 00:02:03;;;;;;;1999.90;999.90;;;13.50;99.90;;;;;;6286863;22;20011;-76
2023/06/09 00:04:32;;;;;;;1999.90;999.90;;;13.50;99.90;;;;;;6314098;22;20010;-77
2023/06/09 00:06:59;;;;;;;1999.90;999.90;;;13.50;99.90;;;;;;6313318;22;20396;-77
2023/06/09 00:09:24;;;;;;;1999.90;999.90;;;13.50;99.90;;;;;;6313887;22;20474;-77
2023/06/09 00:11:50;;;;;;;1999.90;999.90;;;13.50;99.90;;;;;;6313589;22;20008;-77
2023/06/09 00:14:16;;;;;;;1999.90;999.90;;;13.40;99.90;;;;;;6314460;22;20018;-77
2023/06/09 00:16:45;;;;;;;1999.90;999.90;;;13.40;99.90;;;;;;6313441;22;20379;-77
2023/06/09 00:19:11;;;;;;;1999.90;999.90;;;13.40;99.90;;;;;;6314092;22;20440;-77
2023/06/09 00:21:37;;;;;;;1999.90;999.90;;;13.50;99.90;;;;;;6313377;22;20015;-77
2023/06/09 00:24:03;;;;;;;1999.90;999.90;;;13.50;99.90;;;;;;6313638;22;20031;-77
2023/06/09 00:26:29;;;;;;;1999.90;999.90;;;13.50;99.90;;;;;;6314322;22;20016;-76
2023/06/09 00:28:54;;;;;;;1999.90;999.90;;;13.40;99.90;;;;;;6313600;22;20495;-76
2023/06/09 00:31:20;;;;;;;1999.90;999.90;;;13.30;99.90;;;;;;6313312;22;20004;-76
2023/06/09 00:33:45;;;;;;;1999.90;999.90;;;13.30;99.90;;;;;;6314731;22;20718;-76
2023/06/09 00:36:11;;;;;;;1999.90;999.90;;;13.20;99.90;;;;;;6287470;22;20015;-76
2023/06/09 00:38:37;;;;;;;1999.90;999.90;;;13.20;99.90;;;;;;6315426;22;20518;-78
2023/06/09 00:41:02;;;;;;;1999.90;999.90;;;13.20;99.90;;;;;;6287188;22;20336;-77
2023/06/09 00:43:28;;;;;;;1999.90;999.90;;;13.20;99.90;;;;;;6315195;22;20000;-77
2023/06/09 00:45:54;;;;;;;1999.90;999.90;;;13.10;99.90;;;;;;6315076;22;20016;-76
2023/06/09 00:48:19;;;;;;;1999.90;999.90;;;13.10;99.90;;;;;;6315187;22;20004;-76
2023/06/09 00:50:47;;;;;;;1999.90;999.90;;;13.10;99.90;;;;;;6315135;22;20053;-77
2023/06/09 00:53:15;;;;;;;1999.90;999.90;;;13.00;99.90;;;;;;6314457;22;20000;-76
2023/06/09 00:55:41;;;;;;;1999.90;999.90;;;12.90;99.90;;;;;;6287130;22;20440;-76
2023/06/09 00:58:08;;;;;;;1999.90;999.90;;;12.90;99.90;;;;;;6314838;22;20085;-76
2023/06/09 01:00:35;;;;;;;1999.90;999.90;;;12.90;99.90;;;;;;6287140;22;20008;-76
2023/06/09 01:03:02;;;;;;;1999.90;999.90;;;12.90;99.90;;;;;;6314723;22;20011;-76
2023/06/09 01:05:39;;;;;;;1999.90;999.90;;;12.90;99.90;;;;;;6314305;22;20011;-76
2023/06/09 01:08:24;;;;;;;1999.90;999.90;;;12.90;99.90;;;;;;6316383;22;20003;-76
2023/06/09 01:11:02;;;;;;;1999.90;999.90;;;12.90;99.90;;;;;;6314840;22;20011;-76
2023/06/09 01:13:30;;;;;;;1999.90;999.90;;;12.90;99.90;;;;;;6287086;22;20066;-77
2023/06/09 01:16:09;;;;;;;1999.90;999.90;;;12.90;99.90;;;;;;6314302;22;20012;-76
2023/06/09 01:18:36;;;;;;;1999.90;999.90;;;12.90;99.90;;;;;;6287284;22;20008;-76
2023/06/09 01:21:32;;;;;;;1999.90;999.90;;;12.90;99.90;;;;;;6286047;22;20011;-77
2023/06/09 01:24:32;;;;;;;1999.90;999.90;;;12.90;99.90;;;;;;6314875;22;20457;-77
2023/06/09 01:27:01;;;;;;;1999.90;999.90;;;12.90;99.90;;;;;;6314628;22;20015;-76
2023/06/09 01:29:30;;;;;;;1999.90;999.90;;;12.80;99.90;;;;;;6314816;22;20078;-76
2023/06/09 01:31:57;;;;;;;1999.90;999.90;;;12.80;99.90;;;;;;6286689;22;20085;-76
2023/06/09 01:34:23;;;;;;;1999.90;999.90;;;12.70;99.90;;;;;;6339028;22;20008;-77
2023/06/09 01:36:51;;;;;;;1999.90;999.90;;;12.70;99.90;;;;;;6314342;22;20020;-77
2023/06/09 01:39:17;;;;;;;1999.90;999.90;;;12.70;99.90;;;;;;6314756;22;20003;-76
2023/06/09 01:41:43;;;;;;;1999.90;999.90;;;12.70;99.90;;;;;;6286649;22;20031;-77
2023/06/09 01:44:09;;;;;;;1999.90;999.90;;;12.70;99.90;;;;;;6314972;22;20004;-78
2023/06/09 01:46:35;;;;;;;1999.90;999.90;;;12.70;99.90;;;;;;6315005;22;20012;-78
2023/06/09 01:49:22;;;;;;;1999.90;999.90;;;12.70;99.90;;;;;;6287625;22;20078;-77
2023/06/09 01:51:52;;;;;;;1999.90;999.90;;;12.70;99.90;;;;;;6287194;22;20011;-78
2023/06/09 01:54:43;;;;;;;1999.90;999.90;;;12.70;99.90;;;;;;6315535;22;20073;-78
2023/06/09 01:57:24;;;;;;;1999.90;999.90;;;12.70;99.90;;;;;;6276505;22;20023;-78
2023/06/09 02:00:02;;;;;;;1999.90;999.90;;;12.70;99.90;;;;;;6315399;22;20015;-78
2023/06/09 02:02:31;;;;;;;1999.90;999.90;;;12.60;99.90;;;;;;6287250;22;20012;-78
2023/06/09 02:04:58;;;;;;;1999.90;999.90;;;12.60;99.90;;;;;;6287559;22;20103;-78
2023/06/09 02:07:25;;;;;;;1999.90;999.90;;;12.60;99.90;;;;;;6314469;22;20047;-77
2023/06/09 02:09:51;;;;;;;1999.90;999.90;;;12.50;99.90;;;;;;6314966;22;20008;-78
2023/06/09 02:12:17;;;;;;;1999.90;999.90;;;12.50;99.90;;;;;;6314947;22;20081;-78
2023/06/09 02:14:42;;;;;;;1999.90;999.90;;;12.50;99.90;;;;;;6315271;22;20004;-77
2023/06/09 02:17:12;;;;;;;1999.90;999.90;;;12.40;99.90;;;;;;6287414;22;20023;-78
2023/06/09 02:19:38;;;;;;;1999.90;999.90;;;12.40;99.90;;;;;;6339214;22;20012;-78
2023/06/09 02:22:07;;;;;;;1999.90;999.90;;;12.30;99.90;;;;;;6314757;22;20062;-78
2023/06/09 02:24:34;;;;;;;1999.90;999.90;;;12.30;99.90;;;;;;6287261;22;20062;-78
2023/06/09 02:27:01;;;;;;;1999.90;999.90;;;12.30;99.90;;;;;;6314967;22;19995;-78
2023/06/09 02:29:27;;;;;;;1999.90;999.90;;;12.30;99.90;;;;;;6315192;22;20695;-78
2023/06/09 02:31:59;;;;;;;1999.90;999.90;;;12.20;99.90;;;;;;6314556;22;20003;-78
2023/06/09 02:34:26;;;;;;;1999.90;999.90;;;12.20;99.90;;;;;;6315137;22;20004;-78
2023/06/09 02:36:54;;;;;;;1999.90;999.90;;;12.20;99.90;;;;;;6314637;22;20018;-77
2023/06/09 02:39:20;;;;;;;1999.90;999.90;;;12.20;99.90;;;;;;6315145;22;20083;-78
2023/06/09 02:41:46;;;;;;;1999.90;999.90;;;12.20;99.90;;;;;;6315352;22;20008;-78
2023/06/09 02:44:12;;;;;;;1999.90;999.90;;;12.30;99.90;;;;;;6287824;22;20003;-78
2023/06/09 02:46:40;;;;;;;1999.90;999.90;;;12.10;99.90;;;;;;6315091;22;20009;-78
2023/06/09 02:49:08;;;;;;;1999.90;999.90;;;12.10;99.90;;;;;;6315206;22;20012;-78
2023/06/09 02:51:36;;;;;;;1999.90;999.90;;;12.10;99.90;;;;;;6314982;22;20008;-78
2023/06/09 02:54:01;;;;;;;1999.90;999.90;;;12.10;99.90;;;;;;6315289;22;20415;-78
2023/06/09 02:56:27;;;;;;;1999.90;999.90;;;12.10;99.90;;;;;;6314223;22;20066;-77
2023/06/09 02:58:53;;;;;;;1999.90;999.90;;;12.00;99.90;;;;;;6287812;22;20055;-78
2023/06/09 03:01:20;;;;;;;1999.90;999.90;;;12.00;99.90;;;;;;6338995;22;20004;-78
2023/06/09 03:03:46;;;;;;;1999.90;999.90;;;11.90;99.90;;;;;;6315293;22;20014;-77
2023/06/09 03:06:15;;;;;;;1999.90;999.90;;;11.90;99.90;;;;;;6314521;22;20022;-77
2023/06/09 03:08:41;;;;;;;1999.90;999.90;;;11.90;99.90;;;;;;6339665;22;20145;-78
2023/06/09 03:11:07;;;;;;;1999.90;999.90;;;11.90;99.90;;;;;;6315222;22;20082;-78
2023/06/09 03:13:32;;;;;;;1999.90;999.90;;;11.90;99.90;;;;;;6315507;22;20000;-77
2023/06/09 03:15:58;;;;;;;1999.90;999.90;;;11.90;99.90;;;;;;6339638;22;20078;-78
2023/06/09 03:18:27;;;;;;;1999.90;999.90;;;11.90;99.90;;;;;;6315298;22;20087;-78
2023/06/09 03:20:53;;;;;;;1999.90;999.90;;;11.90;99.90;;;;;;6315783;22;20073;-78
2023/06/09 03:23:20;;;;;;;1999.90;999.90;;;11.80;99.90;;;;;;6296614;22;20034;-78
2023/06/09 03:25:46;;;;;;;1999.90;999.90;;;11.80;99.90;;;;;;6345194;22;20043;-78
2023/06/09 03:28:12;;;;;;;1999.90;999.90;;;11.80;99.90;;;;;;6295410;22;20000;-77
2023/06/09 03:30:38;;;;;;;1999.90;999.90;;;11.80;99.90;;;;;;6286575;22;20011;-77
2023/06/09 03:33:03;;;;;;;1999.90;999.90;;;11.80;99.90;;;;;;6314360;22;20010;-78
2023/06/09 03:35:29;;;;;;;1999.90;999.90;;;11.90;99.90;;;;;;6314387;22;20039;-78
2023/06/09 03:37:54;;;;;;;1999.90;999.90;;;11.80;99.90;;;;;;6314357;22;20086;-78
2023/06/09 03:40:20;;;;;;;1999.90;999.90;;;11.90;99.90;;;;;;6286764;22;20029;-78
2023/06/09 03:42:45;;;;;;;1999.90;999.90;;;11.90;99.90;;;;;;6313978;22;20008;-78
2023/06/09 03:45:11;;;;;;;1999.90;999.90;;;11.90;99.90;;;;;;6286532;22;20057;-78
2023/06/09 03:47:36;;;;;;;1999.90;999.90;;;11.90;99.90;;;;;;6314579;22;20014;-77
2023/06/09 03:50:02;;;;;;;1999.90;999.90;;;11.90;99.90;;;;;;6314453;22;20463;-78
2023/06/09 03:52:28;;;;;;;1999.90;999.90;;;11.90;99.90;;;;;;6314028;22;20087;-78
2023/06/09 03:54:53;;;;;;;1999.90;999.90;;;11.90;99.90;;;;;;6314200;22;20022;-78
2023/06/09 03:57:20;;;;;;;1999.90;999.90;;;12.00;99.90;;;;;;6313854;22;20004;-78
2023/06/09 03:59:46;;;;;;;1999.90;999.90;;;12.00;99.90;;;;;;6286812;22;20007;-77
2023/06/09 04:02:11;;;;;;;1999.90;999.90;;;12.00;99.90;;;;;;6314024;22;20012;-78
2023/06/09 04:04:37;;;;;;;1999.90;999.90;;;12.10;99.90;;;;;;6314107;22;20008;-78
2023/06/09 04:07:03;;;;;;;1999.90;999.90;;;12.10;99.90;;;;;;6286061;22;20455;-78
2023/06/09 04:09:32;;;;;;;1999.90;999.90;;;12.10;99.90;;;;;;6313736;22;20008;-78
2023/06/09 04:11:58;;;;;;;1999.90;999.90;;;12.20;99.90;;;;;;6285898;22;20018;-78
2023/06/09 04:14:23;;;;;;;1999.90;999.90;;;12.20;99.90;;;;;;6286484;22;20010;-78
2023/06/09 04:16:49;;;;;;;1999.90;999.90;;;12.30;99.90;;;;;;6338317;22;20058;-78
2023/06/09 04:19:14;;;;;;;1999.90;999.90;;;12.30;99.90;;;;;;6314173;22;20014;-78
2023/06/09 04:21:40;;;;;;;1999.90;999.90;;;12.30;99.90;;;;;;6286227;22;20470;-78
2023/06/09 04:24:08;;;;;;;1999.90;999.90;;;12.30;99.90;;;;;;6313944;22;20454;-77
2023/06/09 04:26:37;;;;;;;1999.90;999.90;;;12.40;99.90;;;;;;6313756;22;20015;-78
2023/06/09 04:29:03;;;;;;;1999.90;999.90;;;12.40;99.90;;;;;;6313972;22;20313;-78
2023/06/09 04:31:33;;;;;;;1999.90;999.90;;;12.50;99.90;;;;;;6313595;22;20058;-78
2023/06/09 04:34:09;;;;;;;1999.90;999.90;;;12.50;99.90;;;;;;6338448;22;20011;-78
2023/06/09 04:36:35;;;;;;;1999.90;999.90;;;12.60;99.90;;;;;;6313706;22;20012;-77
2023/06/09 04:39:00;;;;;;;1999.90;999.90;;;12.70;99.90;;;;;;6313784;22;20004;-78
2023/06/09 04:41:26;;;;;;;1999.90;999.90;;;12.80;99.90;;;;;;6313714;22;20004;-78
2023/06/09 04:43:53;;;;;;;1999.90;999.90;;;12.90;99.90;;;;;;6286317;22;20014;-78
2023/06/09 04:46:24;;;;;;;1999.90;999.90;;;12.90;99.90;;;;;;6313728;22;20072;-77
2023/06/09 04:48:51;;;;;;;1999.90;999.90;;;12.90;99.90;;;;;;6313853;22;20031;-78
2023/06/09 04:51:19;;;;;;;1999.90;999.90;;;13.00;99.90;;;;;;6313579;22;20582;-78
2023/06/09 04:53:47;;;;;;;1999.90;999.90;;;13.10;99.90;;;;;;6286000;22;20390;-78
2023/06/09 04:56:16;;;;;;;1999.90;999.90;;;13.10;99.90;;;;;;6313415;22;20474;-78
2023/06/09 04:58:42;;;;;;;1999.90;999.90;;;13.20;99.90;;;;;;6313868;22;20022;-78
2023/06/09 05:01:07;;;;;;;1999.90;999.90;;;13.30;99.90;;;;;;6285202;22;20101;-78
2023/06/09 05:03:33;;;;;;;1999.90;999.90;;;13.30;99.90;;;;;;6313855;22;20077;-78
2023/06/09 05:05:59;;;;;;;1999.90;999.90;;;13.40;99.90;;;;;;6285652;22;20018;-78
2023/06/09 05:08:25;;;;;;;1999.90;999.90;;;13.60;99.90;;;;;;6313542;22;20339;-78
2023/06/09 05:10:52;;;;;;;1999.90;999.90;;;13.60;99.90;;;;;;6313822;22;20012;-77
2023/06/09 05:13:18;;;;;;;1999.90;999.90;;;13.80;99.90;;;;;;6313761;22;20015;-78
2023/06/09 05:15:45;;;;;;;1999.90;999.90;;;13.90;99.90;;;;;;6313593;22;20011;-78
2023/06/09 05:18:10;;;;;;;1999.90;999.90;;;14.00;99.90;;;;;;6285933;22;20456;-78
2023/06/09 05:20:36;;;;;;;1999.90;999.90;;;14.20;99.90;;;;;;6314562;22;20007;-78
2023/06/09 05:23:02;;;;;;;1999.90;999.90;;;14.30;99.90;;;;;;6314698;22;20016;-77
2023/06/09 05:25:28;;;;;;;1999.90;999.90;;;14.40;99.90;;;;;;6314875;22;20027;-78
2023/06/09 05:27:53;;;;;;;1999.90;999.90;;;14.50;99.90;;;;;;6315062;22;20008;-77
2023/06/09 05:30:19;;;;;;;1999.90;999.90;;;14.60;99.90;;;;;;6314808;22;20000;-77
2023/06/09 05:32:45;;;;;;;1999.90;999.90;;;14.70;99.90;;;;;;6286778;22;20344;-77
2023/06/09 05:35:11;;;;;;;1999.90;999.90;;;14.90;99.90;;;;;;6286956;22;20443;-77
2023/06/09 05:37:47;;;;;;;1999.90;999.90;;;15.00;99.90;;;;;;6314586;22;20081;-77
2023/06/09 05:40:13;;;;;;;1999.90;999.90;;;15.10;99.90;;;;;;6314914;22;20066;-76
2023/06/09 05:42:39;;;;;;;1999.90;999.90;;;15.20;99.90;;;;;;6314499;22;20085;-76
2023/06/09 05:45:05;;;;;;;1999.90;999.90;;;15.30;99.90;;;;;;6314508;22;20074;-77
2023/06/09 05:47:31;;;;;;;1999.90;999.90;;;15.40;99.90;;;;;;6314243;22;20016;-77
2023/06/09 05:49:57;;;;;;;1999.90;999.90;;;15.50;99.90;;;;;;6314641;22;20489;-77
2023/06/09 05:52:23;;;;;;;1999.90;999.90;;;15.60;99.90;;;;;;6338870;22;20039;-77
2023/06/09 05:54:49;;;;;;;1999.90;999.90;;;15.60;99.90;;;;;;6314665;22;20003;-77
2023/06/09 05:57:15;;;;;;;1999.90;999.90;;;15.70;99.90;;;;;;6286824;22;20012;-77
2023/06/09 05:59:42;;;;;;;1999.90;999.90;;;15.80;99.90;;;;;;6286718;22;20003;-77
2023/06/09 06:02:08;;;;;;;1999.90;999.90;;;15.90;99.90;;;;;;6286472;22;20075;-77
2023/06/09 06:04:33;;;;;;;1999.90;999.90;;;16.00;99.90;;;;;;6314512;22;19999;-77
2023/06/09 06:06:59;;;;;;;1999.90;999.90;;;16.10;99.90;;;;;;6313887;22;20012;-77
2023/06/09 06:09:24;;;;;;;1999.90;999.90;;;16.20;99.90;;;;;;6286948;22;20494;-77
2023/06/09 06:11:50;;;;;;;1999.90;999.90;;;16.30;99.90;;;;;;6338694;22;20447;-77
2023/06/09 06:14:15;;;;;;;1999.90;999.90;;;16.30;99.90;;;;;;6286975;22;20432;-77
2023/06/09 06:16:41;;;;;;;1999.90;999.90;;;16.50;99.90;;;;;;6314147;22;20011;-76
2023/06/09 06:19:07;;;;;;;1999.90;999.90;;;16.50;99.90;;;;;;6314436;22;20574;-77
2023/06/09 06:21:32;;;;;;;1999.90;999.90;;;16.60;99.90;;;;;;6286647;22;20011;-77
2023/06/09 06:23:58;;;;;;;1999.90;999.90;;;16.70;99.90;;;;;;6286803;22;20007;-77
2023/06/09 06:26:23;;;;;;;1999.90;999.90;;;16.80;99.90;;;;;;6314272;22;20004;-77
2023/06/09 06:28:49;;;;;;;1999.90;999.90;;;16.90;99.90;;;;;;6339043;22;20455;-77
2023/06/09 06:31:16;;;;;;;1999.90;999.90;;;17.00;99.90;;;;;;6286222;22;20015;-76
2023/06/09 06:33:43;;;;;;;1999.90;999.90;;;17.10;99.90;;;;;;6286633;22;20042;-77
2023/06/09 06:36:08;;;;;;;1999.90;999.90;;;17.30;99.90;;;;;;6314250;22;20020;-77
2023/06/09 06:38:34;;;;;;;1999.90;999.90;;;17.30;99.90;;;;;;6339009;22;20007;-77
2023/06/09 06:40:59;;;;;;;1999.90;999.90;;;17.50;99.90;;;;;;6313977;22;20399;-77
2023/06/09 06:43:25;;;;;;;1999.90;999.90;;;17.60;99.90;;;;;;6314416;22;20034;-77
2023/06/09 06:45:51;;;;;;;1999.90;999.90;;;17.80;99.90;;;;;;6286863;22;20043;-77
2023/06/09 06:48:16;;;;;;;1999.90;999.90;;;17.90;99.90;;;;;;6315816;22;20003;-79
2023/06/09 06:50:42;;;;;;;1999.90;999.90;;;18.00;99.90;;;;;;6288606;22;20335;-78
2023/06/09 06:53:10;;;;;;;1999.90;999.90;;;18.10;99.90;;;;;;6340906;22;20332;-79
2023/06/09 06:55:35;;;;;;;1999.90;999.90;;;18.30;99.90;;;;;;6315852;22;20008;-78
2023/06/09 06:58:01;;;;;;;1999.90;999.90;;;18.40;99.90;;;;;;6315448;22;20019;-76
2023/06/09 07:00:27;;;;;;;1999.90;999.90;;;18.40;99.90;;;;;;6338172;22;20007;-79
2023/06/09 07:02:53;;;;;;;1999.90;999.90;;;18.70;99.90;;;;;;6288027;22;20455;-78
2023/06/09 07:05:19;;;;;;;1999.90;999.90;;;18.80;99.90;;;;;;6315711;22;20004;-78
2023/06/09 07:07:45;;;;;;;1999.90;999.90;;;19.10;99.90;;;;;;6319342;22;20024;-77
2023/06/09 07:10:11;;;;;;;1999.90;999.90;;;19.40;99.90;;;;;;6324822;22;20020;-77
2023/06/09 07:12:37;;;;;;;1999.90;999.90;;;19.70;99.90;;;;;;6320645;22;20003;-76
2023/06/09 07:15:03;;;;;;;1999.90;999.90;;;19.80;99.90;;;;;;6325207;22;20331;-76
2023/06/09 07:17:29;;;;;;;1999.90;999.90;;;20.10;99.90;;;;;;6324588;22;20476;-76
2023/06/09 07:19:55;;;;;;;1999.90;999.90;;;20.30;99.90;;;;;;6324718;22;20058;-76
2023/06/09 07:22:20;;;;;;;1999.90;999.90;;;20.60;99.90;;;;;;6291635;22;20008;-77
2023/06/09 07:24:47;;;;;;;1999.90;999.90;;;20.80;99.90;;;;;;6293634;22;20000;-76
2023/06/09 07:27:12;;;;;;;1999.90;999.90;;;21.10;99.90;;;;;;6317613;22;20015;-77
2023/06/09 07:29:41;;;;;;;1999.90;999.90;;;21.20;99.90;;;;;;6319419;22;20031;-75
2023/06/09 07:32:08;;;;;;;1999.90;999.90;;;21.30;99.90;;;;;;6316045;22;20003;-75
2023/06/09 07:34:35;;;;;;;1999.90;999.90;;;21.50;99.90;;;;;;6314755;22;20030;-77
2023/06/09 07:37:03;;;;;;;1999.90;999.90;;;21.70;99.90;;;;;;6314954;22;20463;-77
2023/06/09 07:39:29;;;;;;;1999.90;999.90;;;21.90;99.90;;;;;;6287268;22;20561;-78
2023/06/09 07:41:55;;;;;;;1999.90;999.90;;;22.00;99.90;;;;;;6315734;22;20104;-79
2023/06/09 07:44:20;;;;;;;1999.90;999.90;;;22.20;99.90;;;;;;6315124;22;20004;-78
2023/06/09 07:46:46;;;;;;;1999.90;999.90;;;22.40;99.90;;;;;;6315111;22;20447;-76
2023/06/09 07:49:13;;;;;;;1999.90;999.90;;;22.50;99.90;;;;;;6315828;22;20020;-77
2023/06/09 07:51:41;;;;;;;1999.90;999.90;;;22.70;99.90;;;;;;6314804;22;20082;-77
2023/06/09 07:54:07;;;;;;;1999.90;999.90;;;22.90;99.90;;;;;;6287258;22;20004;-76
2023/06/09 07:56:36;;;;;;;1999.90;999.90;;;23.10;99.90;;;;;;6316111;22;20087;-77
2023/06/09 07:59:02;;;;;;;1999.90;999.90;;;23.20;99.90;;;;;;6289182;22;20014;-78
2023/06/09 08:01:29;;;;;;;1999.90;999.90;;;23.40;99.90;;;;;;6289447;22;20015;-82
2023/06/09 08:03:55;;;;;;;1999.90;999.90;;;23.30;99.90;;;;;;6290886;22;19999;-78
2023/06/09 08:06:21;;;;;;;1999.90;999.90;;;23.40;99.90;;;;;;6316712;22;20016;-80
2023/06/09 08:08:46;;;;;;;1999.90;999.90;;;23.70;99.90;;;;;;6318911;22;20041;-78
2023/06/09 08:11:12;;;;;;;1999.90;999.90;;;24.00;99.90;;;;;;6290560;22;20083;-77
2023/06/09 08:13:37;;;;;;;1999.90;999.90;;;24.00;99.30;;;;;;6318674;22;20019;-77
2023/06/09 08:16:03;;;;;;;1999.90;999.90;;;24.30;99.30;;;;;;6316896;22;20014;-78
2023/06/09 08:18:29;;;;;;;1999.90;999.90;;;24.60;97.90;;;;;;6315896;22;20008;-75
2023/06/09 08:20:54;;;;;;;1999.90;999.90;;;24.60;97.00;;;;;;6289338;22;20435;-79
2023/06/09 08:23:23;;;;;;;1999.90;999.90;;;24.80;97.80;;;;;;6318205;22;20008;-76
2023/06/09 08:25:50;;;;;;;1999.90;999.90;;;25.00;97.00;;;;;;6289702;22;20031;-78
2023/06/09 08:28:15;;;;;;;1999.90;999.90;;;25.10;96.40;;;;;;6316488;22;20043;-78
2023/06/09 08:30:41;;;;;;;1999.90;999.90;;;25.00;96.00;;;;;;6315936;22;19996;-77
2023/06/09 08:33:07;;;;;;;1999.90;999.90;;;25.00;95.20;;;;;;6315674;22;20003;-78
2023/06/09 08:35:32;;;;;;;1999.90;999.90;;;25.10;94.20;;;;;;6315203;22;20024;-79
2023/06/09 08:37:59;;;;;;;1999.90;999.90;;;25.30;93.80;;;;;;6288270;22;20036;-77
2023/06/09 08:40:24;;;;;;;1999.90;999.90;;;25.50;94.40;;;;;;6316665;22;20015;-78
2023/06/09 08:42:54;;;;;;;1999.90;999.90;;;25.50;92.70;;;;;;6286936;22;20008;-78
2023/06/09 08:45:21;;;;;;;1999.90;999.90;;;25.70;92.20;;;;;;6287845;22;20000;-78
2023/06/09 08:47:54;;;;;;;1999.90;999.90;;;25.70;91.80;;;;;;6314973;22;20516;-78
2023/06/09 08:50:21;;;;;;;1999.90;999.90;;;25.90;91.50;;;;;;6315802;22;19996;-78
2023/06/09 08:52:48;;;;;;;1999.90;999.90;;;26.10;90.80;;;;;;6315719;22;20004;-78
2023/06/09 08:55:14;;;;;;;1999.90;999.90;;;26.30;90.20;;;;;;6316275;22;20081;-79
2023/06/09 08:57:40;;;;;;;1999.90;999.90;;;25.90;90.40;;;;;;6289151;22;20501;-78
2023/06/09 09:00:09;;;;;;;1999.90;999.90;;;25.80;90.60;;;;;;6315973;22;20458;-78
2023/06/09 09:02:35;;;;;;;1999.90;999.90;;;26.20;90.30;;;;;;6316769;22;20011;-79
2023/06/09 09:05:01;;;;;;;1999.90;999.90;;;26.70;90.10;;;;;;6317307;22;20055;-78
2023/06/09 09:07:27;;;;;;;1999.90;999.90;;;26.40;88.10;;;;;;6316390;22;20054;-78
2023/06/09 09:09:54;;;;;;;1999.90;999.90;;;26.70;90.40;;;;;;6340866;22;20453;-78
2023/06/09 09:12:19;;;;;;;1999.90;999.90;;;26.80;88.80;;;;;;6316570;22;20054;-78
2023/06/09 09:14:45;;;;;;;1999.90;999.90;;;26.80;89.00;;;;;;6316695;22;20003;-78
2023/06/09 09:17:12;;;;;;;1999.90;999.90;;;27.10;88.90;;;;;;6289728;22;20051;-78
2023/06/09 09:19:41;;;;;;;1999.90;999.90;;;27.00;87.20;;;;;;6289608;22;20354;-78
2023/06/09 09:22:07;;;;;;;1999.90;999.90;;;27.10;88.10;;;;;;6315611;22;20443;-78
2023/06/09 09:24:34;;;;;;;1999.90;999.90;;;27.30;86.50;;;;;;6316678;22;20004;-78
2023/06/09 09:27:00;;;;;;;1999.90;999.90;;;27.50;88.90;;;;;;6288805;22;20022;-78
2023/06/09 09:29:27;;;;;;;1999.90;999.90;;;27.50;86.00;;;;;;6316554;22;20018;-78
2023/06/09 09:31:58;;;;;;;1999.90;999.90;;;27.70;86.80;;;;;;6288210;22;20011;-78
2023/06/09 09:34:25;;;;;;;1999.90;999.90;;;27.70;84.10;;;;;;6288090;22;20004;-78
2023/06/09 09:36:55;;;;;;;1999.90;999.90;;;27.50;83.50;;;;;;6288757;22;20020;-78
2023/06/09 09:39:20;;;;;;;1999.90;999.90;;;27.40;81.50;;;;;;6317177;22;20841;-78
2023/06/09 09:42:10;;;;;;;1999.90;999.90;;;27.00;82.60;;;;;;6316269;22;20039;-78
2023/06/09 09:44:40;;;;;;;1999.90;999.90;;;27.30;83.00;;;;;;6316026;22;20004;-78
2023/06/09 09:47:12;;;;;;;1999.90;999.90;;;27.40;82.60;;;;;;6316030;22;20012;-78
2023/06/09 09:49:37;;;;;;;1999.90;999.90;;;27.30;82.10;;;;;;6341097;22;20003;-78
2023/06/09 09:52:06;;;;;;;1999.90;999.90;;;27.40;83.20;;;;;;6288868;22;20007;-79
2023/06/09 09:54:36;;;;;;;1999.90;999.90;;;27.60;82.40;;;;;;6316344;22;20004;-78
2023/06/09 09:57:02;;;;;;;1999.90;999.90;;;27.70;81.30;;;;;;6316012;22;20022;-79
2023/06/09 09:59:28;;;;;;;1999.90;999.90;;;27.60;81.20;;;;;;6316357;22;20003;-78
2023/06/09 10:01:55;;;;;;;1999.90;999.90;;;27.50;82.00;;;;;;6288259;22;20321;-78
2023/06/09 10:04:23;;;;;;;1999.90;999.90;;;27.50;80.60;;;;;;6340414;22;20794;-79
2023/06/09 10:06:58;;;;;;;1999.90;999.90;;;27.50;80.40;;;;;;6287493;22;20497;-78
2023/06/09 10:09:25;;;;;;;1999.90;999.90;;;27.70;80.70;;;;;;6316906;22;20004;-78
2023/06/09 10:11:52;;;;;;;1999.90;999.90;;;28.20;79.60;;;;;;6288654;22;20107;-78
2023/06/09 10:14:20;;;;;;;1999.90;999.90;;;28.40;78.30;;;;;;6317852;22;20057;-78
2023/06/09 10:16:47;;;;;;;1999.90;999.90;;;28.10;77.90;;;;;;6315699;22;20019;-78
2023/06/09 10:19:14;;;;;;;1999.90;999.90;;;28.30;78.60;;;;;;6316379;22;20454;-78
2023/06/09 10:21:41;;;;;;;1999.90;999.90;;;28.50;77.50;;;;;;6288284;22;20007;-78
2023/06/09 10:24:08;;;;;;;1999.90;999.90;;;28.50;77.50;;;;;;6316550;22;20093;-78
2023/06/09 10:26:36;;;;;;;1999.90;999.90;;;28.80;77.90;;;;;;6288948;22;20039;-78
2023/06/09 10:29:06;;;;;;;1999.90;999.90;;;28.60;74.80;;;;;;6288325;22;20134;-78
2023/06/09 10:31:34;;;;;;;1999.90;999.90;;;28.70;74.90;;;;;;6288336;22;20007;-79
2023/06/09 10:34:01;;;;;;;1999.90;999.90;;;28.70;75.50;;;;;;6316067;22;20458;-78
2023/06/09 10:36:36;;;;;;;1999.90;999.90;;;28.90;75.80;;;;;;6315774;22;20019;-78
2023/06/09 10:39:17;;;;;;;1999.90;999.90;;;28.80;73.10;;;;;;6317032;22;20022;-78
2023/06/09 10:41:59;;;;;;;1999.90;999.90;;;28.70;74.90;;;;;;6288600;22;20435;-78
2023/06/09 10:44:30;;;;;;;1999.90;999.90;;;28.90;74.50;;;;;;6315941;22;20503;-79
2023/06/09 10:46:56;;;;;;;1999.90;999.90;;;29.10;73.40;;;;;;6316379;22;20007;-78
2023/06/09 10:49:25;;;;;;;1999.90;999.90;;;29.50;71.70;;;;;;6288032;22;20007;-78
2023/06/09 10:51:54;;;;;;;1999.90;999.90;;;29.30;72.80;;;;;;6315539;22;20008;-78
2023/06/09 10:54:22;;;;;;;1999.90;999.90;;;28.80;71.20;;;;;;6315536;22;20431;-78
2023/06/09 10:57:36;;;;;;;1999.90;999.90;;;28.70;72.50;;;;;;6288027;22;20015;-79
2023/06/09 11:00:09;;;;;;;1999.90;999.90;;;29.20;71.00;;;;;;6273318;22;20003;-78
2023/06/09 11:02:35;;;;;;;1999.90;999.90;;;29.50;68.20;;;;;;6315629;22;20003;-78
2023/06/09 11:05:00;;;;;;;1999.90;999.90;;;29.80;68.10;;;;;;6315806;22;20000;-78
2023/06/09 11:07:32;;;;;;;1999.90;999.90;;;29.80;68.10;;;;;;6316164;22;20043;-78
2023/06/09 11:09:58;;;;;;;1999.90;999.90;;;29.80;67.50;;;;;;6316329;22;20032;-78
2023/06/09 11:12:38;;;;;;;1999.90;999.90;;;30.00;67.70;;;;;;6315251;22;20004;-78
2023/06/09 11:15:07;;;;;;;1999.90;999.90;;;29.90;70.90;;;;;;6288021;22;20864;-78
2023/06/09 11:17:33;;;;;;;1999.90;999.90;;;30.30;70.20;;;;;;6315579;22;20015;-78
2023/06/09 11:20:20;;;;;;;1999.90;999.90;;;30.60;65.40;;;;;;6317026;22;20830;-78
2023/06/09 11:22:49;;;;;;;1999.90;999.90;;;30.50;65.30;;;;;;6316448;22;20008;-78
2023/06/09 11:25:15;;;;;;;1999.90;999.90;;;30.30;68.00;;;;;;6315223;22;20004;-79
2023/06/09 11:27:42;;;;;;;1999.90;999.90;;;30.80;68.80;;;;;;6316335;22;20016;-78
2023/06/09 11:30:16;;;;;;;1999.90;999.90;;;30.30;67.10;;;;;;6316540;22;20004;-78
2023/06/09 11:32:48;;;;;;;1999.90;999.90;;;30.30;68.10;;;;;;6316094;22;20014;-78
2023/06/09 11:35:34;;;;;;;1999.90;999.90;;;29.50;69.90;;;;;;6314940;22;20505;-76
2023/06/09 11:38:05;;;;;;;1999.90;999.90;;;29.80;68.60;;;;;;6314196;22;20051;-78
2023/06/09 11:40:32;;;;;;;1999.90;999.90;;;29.50;68.20;;;;;;6288393;22;20090;-79
2023/06/09 11:42:59;;;;;;;1999.90;999.90;;;29.80;68.80;;;;;;6316039;22;20051;-78
2023/06/09 11:45:32;;;;;;;1999.90;999.90;;;29.20;68.30;;;;;;6288206;22;20004;-78
2023/06/09 11:48:00;;;;;;;1999.90;999.90;;;28.60;69.70;;;;;;6315206;22;20044;-78
2023/06/09 11:50:35;;;;;;;1999.90;999.90;;;28.70;71.90;;;;;;6315603;22;20095;-78
2023/06/09 11:53:06;;;;;;;1999.90;999.90;;;29.50;69.00;;;;;;6317121;22;20014;-78
2023/06/09 11:55:32;;;;;;;1999.90;999.90;;;30.10;67.00;;;;;;6288377;22;20004;-78
2023/06/09 11:57:58;;;;;;;1999.90;999.90;;;30.70;68.40;;;;;;6288958;22;20051;-79
2023/06/09 12:00:29;;;;;;;1999.90;999.90;;;31.40;65.60;;;;;;6289165;22;20010;-78
2023/06/09 12:02:56;;;;;;;1999.90;999.90;;;31.90;62.90;;;;;;6315929;22;20007;-78